createdAt,value
2018-07-26T00:02:20.975Z,21.50
2018-07-26T00:04:48.353Z,21.60
2018-07-26T00:07:15.773Z,21.60
2018-07-26T00:09:43.697Z,21.50
2018-07-26T00:12:11.123Z,21.50
2018-07-26T00:14:38.609Z,21.40
2018-07-26T00:17:06.121Z,21.40
2018-07-26T00:19:33.577Z,21.20
2018-07-26T00:22:01.026Z,21.30
2018-07-26T00:24:28.358Z,21.40
2018-07-26T00:26:55.849Z,21.40
2018-07-26T00:29:23.274Z,21.50
2018-07-26T00:31:50.573Z,21.50
2018-07-26T00:34:17.939Z,21.40
2018-07-26T00:36:45.347Z,21.40
2018-07-26T00:41:40.147Z,21.30
2018-07-26T00:44:08.075Z,21.40
2018-07-26T00:46:35.399Z,21.40
2018-07-26T00:49:02.743Z,21.40
2018-07-26T00:51:30.201Z,21.30
2018-07-26T00:53:57.647Z,21.30
2018-07-26T00:56:24.972Z,21.30
2018-07-26T00:58:52.331Z,21.30
2018-07-26T01:01:19.693Z,21.40
2018-07-26T01:03:47.022Z,21.30
2018-07-26T01:06:14.358Z,21.20
2018-07-26T01:08:41.686Z,21.20
2018-07-26T01:11:09.152Z,21.00
2018-07-26T01:13:36.603Z,21.10
2018-07-26T01:16:04.394Z,21.10
2018-07-26T01:18:31.713Z,21.10
2018-07-26T01:20:59.110Z,21.10
2018-07-26T01:23:26.592Z,21.00
2018-07-26T01:25:54.266Z,21.00
2018-07-26T01:28:21.928Z,21.00
2018-07-26T01:30:49.290Z,20.90
2018-07-26T01:33:17.072Z,21.00
2018-07-26T01:35:44.478Z,20.90
2018-07-26T01:38:12.037Z,20.80
2018-07-26T01:40:39.426Z,20.70
2018-07-26T01:44:23.158Z,20.70
2018-07-26T01:46:50.579Z,20.60
2018-07-26T01:49:18.181Z,20.60
2018-07-26T01:51:45.646Z,20.60
2018-07-26T01:54:13.053Z,20.50
2018-07-26T01:56:40.497Z,20.60
2018-07-26T01:59:07.850Z,20.60
2018-07-26T02:01:35.251Z,20.50
2018-07-26T02:04:02.616Z,20.50
2018-07-26T02:06:30.078Z,20.50
2018-07-26T02:08:57.444Z,20.50
2018-07-26T02:11:24.904Z,20.50
2018-07-26T02:13:52.310Z,20.50
2018-07-26T02:16:19.602Z,20.50
2018-07-26T02:18:46.991Z,20.40
2018-07-26T02:21:14.331Z,20.30
2018-07-26T02:23:41.745Z,20.20
2018-07-26T02:26:09.226Z,20.20
2018-07-26T02:28:36.613Z,20.10
2018-07-26T02:31:04.150Z,20.10
2018-07-26T02:33:31.452Z,20.10
2018-07-26T02:35:58.903Z,20.00
2018-07-26T02:38:26.272Z,20.00
2018-07-26T02:40:53.695Z,19.90
2018-07-26T02:43:21.007Z,19.90
2018-07-26T02:45:48.451Z,19.80
2018-07-26T02:48:15.856Z,19.90
2018-07-26T02:50:43.298Z,19.80
2018-07-26T02:53:10.666Z,19.80
2018-07-26T02:55:38.133Z,19.90
2018-07-26T02:58:05.569Z,19.90
2018-07-26T03:00:32.967Z,19.80
2018-07-26T03:03:00.321Z,19.70
2018-07-26T03:05:27.709Z,19.60
2018-07-26T03:07:55.145Z,19.60
2018-07-26T03:10:22.485Z,19.60
2018-07-26T03:12:51.943Z,19.70
2018-07-26T03:15:19.442Z,19.70
2018-07-26T03:17:46.929Z,19.60
2018-07-26T03:20:14.391Z,19.50
2018-07-26T03:22:41.813Z,19.50
2018-07-26T03:25:09.233Z,19.50
2018-07-26T03:27:36.604Z,19.60
2018-07-26T03:30:07.031Z,19.40
2018-07-26T03:32:34.421Z,19.30
2018-07-26T03:35:01.799Z,19.40
2018-07-26T03:37:29.122Z,19.40
2018-07-26T03:39:56.592Z,19.40
2018-07-26T03:42:23.995Z,19.40
2018-07-26T03:44:51.326Z,19.20
2018-07-26T03:47:18.766Z,19.20
2018-07-26T03:49:46.196Z,19.40
2018-07-26T03:52:13.576Z,19.40
2018-07-26T03:54:40.965Z,19.50
2018-07-26T03:57:08.345Z,19.50
2018-07-26T04:02:03.010Z,19.40
2018-07-26T04:04:30.415Z,19.30
2018-07-26T04:06:57.844Z,19.30
2018-07-26T04:09:25.229Z,19.40
2018-07-26T04:12:00.454Z,19.30
2018-07-26T04:14:27.787Z,19.40
2018-07-26T04:16:55.228Z,19.30
2018-07-26T04:19:22.630Z,19.30
2018-07-26T04:21:50.078Z,19.20
2018-07-26T04:24:17.462Z,19.30
2018-07-26T04:26:44.782Z,19.20
2018-07-26T04:29:12.224Z,19.20
2018-07-26T04:31:44.638Z,19.20
2018-07-26T04:34:13.578Z,19.20
2018-07-26T04:36:41.016Z,19.30
2018-07-26T04:39:21.110Z,19.40
2018-07-26T04:41:48.506Z,19.40
2018-07-26T04:44:15.988Z,19.40
2018-07-26T04:47:50.566Z,19.40
2018-07-26T04:50:18.036Z,19.40
2018-07-26T04:52:45.420Z,19.50
2018-07-26T04:55:12.822Z,19.40
2018-07-26T04:57:40.226Z,19.50
2018-07-26T05:00:07.782Z,19.50
2018-07-26T05:02:35.390Z,19.60
2018-07-26T05:05:03.133Z,19.70
2018-07-26T05:07:30.578Z,19.80
2018-07-26T05:09:57.966Z,19.80
2018-07-26T05:14:52.793Z,20.00
2018-07-26T05:17:20.521Z,20.10
2018-07-26T05:19:47.934Z,20.20
2018-07-26T05:22:15.433Z,20.30
2018-07-26T05:24:42.911Z,20.40
2018-07-26T05:27:10.418Z,20.40
2018-07-26T05:29:37.990Z,20.40
2018-07-26T05:32:05.407Z,20.50
2018-07-26T05:34:32.801Z,20.70
2018-07-26T05:37:00.230Z,20.70
2018-07-26T05:39:27.695Z,20.80
2018-07-26T05:41:55.040Z,20.80
2018-07-26T05:44:22.456Z,20.90
2018-07-26T05:46:49.813Z,21.00
2018-07-26T05:49:17.228Z,21.10
2018-07-26T05:51:44.615Z,21.10
2018-07-26T05:54:12.020Z,21.10
2018-07-26T05:56:39.483Z,21.20
2018-07-26T05:59:06.849Z,21.30
2018-07-26T06:01:34.234Z,21.50
2018-07-26T06:04:01.616Z,21.60
2018-07-26T06:06:29.157Z,21.80
2018-07-26T06:08:56.487Z,21.90
2018-07-26T06:11:23.881Z,22.00
2018-07-26T06:13:51.233Z,22.00
2018-07-26T06:16:18.664Z,22.20
2018-07-26T06:18:46.074Z,22.30
2018-07-26T06:21:13.404Z,22.50
2018-07-26T06:23:40.912Z,22.60
2018-07-26T06:26:08.263Z,22.70
2018-07-26T06:28:35.594Z,22.90
2018-07-26T06:31:03.053Z,23.10
2018-07-26T06:33:30.476Z,23.30
2018-07-26T06:35:57.932Z,23.40
2018-07-26T06:38:25.383Z,23.50
2018-07-26T06:40:52.815Z,23.70
2018-07-26T06:43:20.158Z,23.80
2018-07-26T06:45:47.597Z,23.90
2018-07-26T06:48:15.025Z,24.00
2018-07-26T06:50:42.421Z,24.20
2018-07-26T06:53:09.911Z,24.10
2018-07-26T06:55:37.352Z,24.20
2018-07-26T06:58:04.823Z,24.30
2018-07-26T07:00:32.225Z,24.40
2018-07-26T07:02:59.665Z,24.50
2018-07-26T07:05:27.090Z,24.50
2018-07-26T07:07:54.464Z,24.70
2018-07-26T07:10:21.975Z,24.80
2018-07-26T07:12:49.339Z,25.00
2018-07-26T07:15:16.735Z,25.00
2018-07-26T07:17:44.164Z,25.30
2018-07-26T07:20:12.186Z,25.40
2018-07-26T07:22:39.489Z,25.50
2018-07-26T07:25:06.976Z,25.60
2018-07-26T07:27:34.449Z,25.70
2018-07-26T07:30:01.970Z,25.80
2018-07-26T07:32:29.322Z,25.90
2018-07-26T07:34:56.758Z,26.00
2018-07-26T07:37:25.144Z,26.20
2018-07-26T07:39:52.507Z,26.20
2018-07-26T07:42:19.903Z,26.20
2018-07-26T07:44:47.366Z,26.50
2018-07-26T07:47:14.724Z,26.50
2018-07-26T07:49:42.174Z,26.70
2018-07-26T07:52:09.563Z,26.60
2018-07-26T07:54:37.030Z,26.80
2018-07-26T07:57:04.938Z,27.00
2018-07-26T07:59:32.373Z,27.00
2018-07-26T08:01:59.747Z,26.90
2018-07-26T08:04:27.098Z,26.90
2018-07-26T08:06:54.622Z,26.90
2018-07-26T08:09:22.045Z,27.20
2018-07-26T08:11:49.437Z,27.20
2018-07-26T08:14:16.872Z,27.50
2018-07-26T08:16:44.241Z,27.60
2018-07-26T08:19:11.722Z,27.70
2018-07-26T08:21:39.201Z,27.80
2018-07-26T08:24:06.627Z,27.80
2018-07-26T08:26:34.024Z,27.90
2018-07-26T08:29:01.410Z,27.90
2018-07-26T08:31:28.881Z,28.10
2018-07-26T08:33:56.258Z,28.10
2018-07-26T08:36:23.614Z,28.10
2018-07-26T08:38:50.988Z,28.30
2018-07-26T08:41:18.802Z,28.50
2018-07-26T08:43:46.255Z,28.70
2018-07-26T08:48:41.146Z,28.80
2018-07-26T08:51:08.569Z,28.80
2018-07-26T08:53:36.066Z,28.70
2018-07-26T08:56:03.505Z,28.70
2018-07-26T08:58:30.878Z,28.70
2018-07-26T09:00:58.209Z,28.80
2018-07-26T09:03:25.606Z,29.00
2018-07-26T09:05:53.022Z,29.10
2018-07-26T09:08:20.403Z,28.90
2018-07-26T09:10:47.882Z,29.00
2018-07-26T09:13:15.258Z,29.30
2018-07-26T09:15:42.713Z,29.40
2018-07-26T09:18:10.241Z,29.40
2018-07-26T09:20:37.695Z,29.40
2018-07-26T09:23:05.130Z,29.40
2018-07-26T09:25:32.464Z,29.40
2018-07-26T09:27:59.927Z,29.60
2018-07-26T09:30:27.374Z,29.60
2018-07-26T09:32:54.800Z,29.80
2018-07-26T09:35:22.227Z,29.70
2018-07-26T09:37:49.586Z,29.70
2018-07-26T09:42:44.223Z,29.70
2018-07-26T09:45:11.718Z,29.90
2018-07-26T09:47:39.129Z,29.80
2018-07-26T09:50:07.027Z,30.00
2018-07-26T09:52:34.460Z,30.10
2018-07-26T09:55:01.915Z,29.80
2018-07-26T09:57:29.354Z,29.50
2018-07-26T09:59:56.761Z,29.60
2018-07-26T10:02:24.158Z,29.90
2018-07-26T10:04:51.461Z,30.20
2018-07-26T10:07:18.906Z,30.30
2018-07-26T10:09:46.226Z,30.50
2018-07-26T10:12:13.642Z,30.50
2018-07-26T10:14:41.183Z,30.60
2018-07-26T10:17:08.529Z,30.50
2018-07-26T10:19:35.897Z,30.50
2018-07-26T10:22:03.335Z,30.40
2018-07-26T10:24:30.679Z,30.40
2018-07-26T10:26:58.093Z,30.10
2018-07-26T10:29:25.499Z,29.70
2018-07-26T10:31:52.968Z,29.10
2018-07-26T10:34:20.343Z,29.40
2018-07-26T10:36:49.370Z,29.90
2018-07-26T10:39:17.353Z,30.30
2018-07-26T10:41:45.801Z,30.30
2018-07-26T10:44:13.200Z,30.50
2018-07-26T10:46:42.182Z,30.70
2018-07-26T10:49:09.645Z,30.80
2018-07-26T10:51:37.129Z,30.90
2018-07-26T10:54:04.523Z,30.90
2018-07-26T10:56:31.956Z,30.90
2018-07-26T10:58:59.959Z,30.90
2018-07-26T11:01:28.005Z,31.20
2018-07-26T11:03:56.097Z,31.10
2018-07-26T11:06:23.455Z,31.20
2018-07-26T11:08:50.887Z,31.10
2018-07-26T11:11:18.231Z,31.50
2018-07-26T11:13:45.613Z,31.70
2018-07-26T11:16:13.069Z,31.60
2018-07-26T11:18:50.280Z,31.70
2018-07-26T11:21:17.814Z,31.60
2018-07-26T11:23:45.358Z,31.70
2018-07-26T11:26:12.949Z,31.60
2018-07-26T11:31:07.877Z,32.00
2018-07-26T11:33:35.306Z,32.20
2018-07-26T11:36:02.852Z,32.10
2018-07-26T11:38:30.318Z,32.10
2018-07-26T11:40:57.834Z,31.80
2018-07-26T11:43:25.315Z,31.70
2018-07-26T11:45:52.699Z,31.80
2018-07-26T11:48:20.109Z,32.00
2018-07-26T11:50:47.548Z,32.20
2018-07-26T11:53:14.963Z,32.00
2018-07-26T11:55:42.432Z,31.90
2018-07-26T11:58:09.903Z,32.00
2018-07-26T12:00:37.253Z,32.30
2018-07-26T12:03:04.669Z,32.30
2018-07-26T12:05:32.158Z,32.30
2018-07-26T12:08:00.290Z,32.30
2018-07-26T12:10:27.743Z,32.60
2018-07-26T12:12:55.143Z,32.90
2018-07-26T12:15:22.512Z,33.00
2018-07-26T12:17:50.933Z,32.90
2018-07-26T12:20:18.331Z,32.90
2018-07-26T12:22:45.765Z,33.10
2018-07-26T12:25:13.142Z,32.90
2018-07-26T12:27:41.760Z,32.80
2018-07-26T12:30:09.711Z,32.50
2018-07-26T12:35:05.387Z,32.60
2018-07-26T12:37:33.489Z,32.60
2018-07-26T12:40:00.832Z,32.60
2018-07-26T12:42:29.184Z,32.50
2018-07-26T12:44:56.563Z,32.40
2018-07-26T12:47:24.453Z,32.50
2018-07-26T12:49:51.816Z,32.50
2018-07-26T12:52:20.526Z,32.20
2018-07-26T12:54:48.832Z,31.90
2018-07-26T12:57:16.415Z,31.90
2018-07-26T12:59:43.890Z,32.30
2018-07-26T13:02:11.551Z,32.80
2018-07-26T13:04:39.000Z,32.90
2018-07-26T13:07:06.425Z,33.30
2018-07-26T13:09:33.782Z,32.80
2018-07-26T13:12:01.526Z,32.50
2018-07-26T13:14:28.898Z,32.70
2018-07-26T13:16:56.357Z,32.90
2018-07-26T13:19:23.810Z,32.80
2018-07-26T13:21:51.105Z,32.20
2018-07-26T13:24:18.654Z,31.90
2018-07-26T13:26:46.150Z,32.20
2018-07-26T13:29:13.438Z,32.40
2018-07-26T13:31:40.865Z,32.70
2018-07-26T13:36:42.583Z,32.80
2018-07-26T13:39:12.670Z,33.00
2018-07-26T13:41:40.014Z,33.20
2018-07-26T13:46:34.773Z,33.10
2018-07-26T13:49:02.299Z,33.20
2018-07-26T13:51:29.763Z,33.30
2018-07-26T13:53:57.214Z,33.50
2018-07-26T13:56:24.629Z,33.60
2018-07-26T13:58:52.009Z,34.00
2018-07-26T14:01:19.387Z,34.20
2018-07-26T14:03:46.865Z,34.50
2018-07-26T14:06:14.317Z,34.20
2018-07-26T14:08:41.725Z,33.90
2018-07-26T14:11:09.153Z,34.10
2018-07-26T14:13:36.493Z,34.40
2018-07-26T14:16:04.209Z,34.40
2018-07-26T14:18:31.639Z,34.00
2018-07-26T14:20:59.057Z,33.90
2018-07-26T14:23:32.158Z,33.70
2018-07-26T14:26:00.367Z,33.90
2018-07-26T14:28:28.331Z,34.00
2018-07-26T14:30:55.696Z,34.30
2018-07-26T14:33:23.039Z,34.30
2018-07-26T14:35:50.537Z,34.60
2018-07-26T14:38:18.665Z,34.80
2018-07-26T14:40:46.120Z,34.40
2018-07-26T14:43:13.636Z,34.00
2018-07-26T14:45:41.817Z,33.70
2018-07-26T14:48:09.234Z,33.90
2018-07-26T14:50:36.678Z,33.90
2018-07-26T14:53:04.045Z,33.90
2018-07-26T14:55:31.863Z,34.00
2018-07-26T14:57:59.327Z,34.10
2018-07-26T15:00:26.824Z,34.20
2018-07-26T15:02:54.256Z,34.30
2018-07-26T15:05:21.749Z,34.10
2018-07-26T15:07:49.130Z,33.50
2018-07-26T15:10:16.450Z,32.90
2018-07-26T15:12:43.840Z,32.70
2018-07-26T15:15:12.587Z,32.60
2018-07-26T15:17:40.645Z,32.70
2018-07-26T15:20:08.131Z,32.90
2018-07-26T15:22:35.594Z,32.90
2018-07-26T15:25:02.958Z,32.80
2018-07-26T15:27:31.238Z,32.70
2018-07-26T15:29:58.718Z,32.60
2018-07-26T15:32:26.141Z,32.40
2018-07-26T15:34:53.682Z,32.30
2018-07-26T15:37:21.076Z,32.40
2018-07-26T15:39:48.418Z,32.30
2018-07-26T15:42:15.864Z,32.30
2018-07-26T15:47:11.085Z,32.40
2018-07-26T15:49:39.454Z,32.40
2018-07-26T15:52:06.924Z,32.20
2018-07-26T15:54:34.334Z,32.20
2018-07-26T15:57:01.713Z,32.20
2018-07-26T15:59:29.575Z,32.20
2018-07-26T16:01:57.152Z,32.20
2018-07-26T16:04:24.556Z,32.10
2018-07-26T16:06:52.031Z,32.10
2018-07-26T16:09:19.508Z,32.10
2018-07-26T16:11:46.888Z,32.00
2018-07-26T16:14:14.338Z,31.90
2018-07-26T16:16:42.369Z,31.90
2018-07-26T16:19:09.917Z,31.80
2018-07-26T16:21:38.143Z,31.80
2018-07-26T16:24:05.569Z,31.80
2018-07-26T16:26:33.071Z,31.80
2018-07-26T16:29:00.607Z,31.70
2018-07-26T16:31:28.030Z,31.60
2018-07-26T16:33:55.432Z,31.60
2018-07-26T16:38:50.171Z,31.40
2018-07-26T16:41:17.563Z,31.40
2018-07-26T16:43:45.072Z,31.40
2018-07-26T16:46:12.452Z,31.40
2018-07-26T16:48:40.276Z,31.40
2018-07-26T16:51:07.795Z,31.30
2018-07-26T16:53:35.272Z,31.30
2018-07-26T16:56:02.750Z,31.20
2018-07-26T16:58:30.303Z,31.10
2018-07-26T17:00:57.681Z,31.10
2018-07-26T17:03:25.104Z,31.00
2018-07-26T17:05:52.542Z,31.10
2018-07-26T17:08:20.010Z,31.10
2018-07-26T17:10:47.409Z,31.00
2018-07-26T17:13:14.823Z,31.00
2018-07-26T17:15:42.261Z,31.00
2018-07-26T17:18:09.751Z,31.00
2018-07-26T17:20:37.176Z,31.00
2018-07-26T17:23:04.614Z,30.90
2018-07-26T17:25:32.130Z,30.80
2018-07-26T17:27:59.654Z,30.80
2018-07-26T17:30:27.056Z,30.70
2018-07-26T17:32:54.524Z,30.70
2018-07-26T17:35:21.963Z,30.60
2018-07-26T17:37:49.904Z,30.60
2018-07-26T17:40:17.398Z,30.50
2018-07-26T17:42:44.921Z,30.50
2018-07-26T17:45:12.365Z,30.50
2018-07-26T17:47:39.998Z,30.50
2018-07-26T17:50:09.367Z,30.50
2018-07-26T17:52:36.775Z,30.50
2018-07-26T17:55:04.780Z,30.50
2018-07-26T17:57:32.143Z,30.50
2018-07-26T17:59:59.618Z,30.50
2018-07-26T18:02:27.160Z,30.50
2018-07-26T18:04:54.690Z,30.40
2018-07-26T18:07:22.158Z,30.40
2018-07-26T18:09:49.780Z,30.40
2018-07-26T18:12:17.159Z,30.40
2018-07-26T18:14:44.842Z,30.40
2018-07-26T18:17:12.290Z,30.30
2018-07-26T18:19:39.713Z,30.30
2018-07-26T18:22:07.204Z,30.20
2018-07-26T18:24:34.677Z,30.20
2018-07-26T18:27:02.191Z,30.20
2018-07-26T18:29:29.591Z,30.10
2018-07-26T18:31:57.014Z,30.10
2018-07-26T18:34:24.508Z,30.10
2018-07-26T18:36:51.992Z,29.90
2018-07-26T18:39:19.376Z,29.90
2018-07-26T18:41:46.922Z,29.80
2018-07-26T18:44:14.438Z,29.70
2018-07-26T18:46:41.851Z,29.60
2018-07-26T18:49:09.410Z,29.60
2018-07-26T18:51:36.827Z,29.50
2018-07-26T18:54:04.692Z,29.40
2018-07-26T18:56:32.177Z,29.40
2018-07-26T18:58:59.594Z,29.30
2018-07-26T19:03:54.456Z,29.30
2018-07-26T19:06:21.908Z,29.20
2018-07-26T19:08:49.474Z,29.20
2018-07-26T19:11:16.902Z,29.10
2018-07-26T19:13:44.323Z,29.00
2018-07-26T19:16:11.735Z,29.00
2018-07-26T19:18:39.215Z,28.80
2018-07-26T19:21:07.435Z,28.80
2018-07-26T19:23:34.901Z,28.80
2018-07-26T19:26:02.426Z,28.50
2018-07-26T19:28:29.865Z,28.40
2018-07-26T19:30:57.314Z,28.40
2018-07-26T19:33:24.787Z,28.50
2018-07-26T19:35:52.240Z,28.50
2018-07-26T19:38:19.629Z,28.40
2018-07-26T19:40:47.084Z,28.30
2018-07-26T19:43:14.532Z,28.30
2018-07-26T19:45:41.986Z,28.20
2018-07-26T19:48:09.488Z,28.20
2018-07-26T19:50:36.958Z,28.20
2018-07-26T19:53:04.458Z,28.10
2018-07-26T19:55:32.604Z,28.10
2018-07-26T19:58:00.518Z,28.10
2018-07-26T20:00:27.938Z,28.00
2018-07-26T20:02:55.346Z,28.00
2018-07-26T20:05:22.798Z,28.00
2018-07-26T20:10:17.548Z,28.00
2018-07-26T20:12:44.956Z,27.90
2018-07-26T20:15:12.324Z,27.90
2018-07-26T20:17:39.772Z,27.90
2018-07-26T20:20:08.228Z,27.90
2018-07-26T20:22:35.812Z,27.90
2018-07-26T20:25:03.624Z,27.90
2018-07-26T20:27:31.013Z,27.90
2018-07-26T20:29:58.461Z,27.90
2018-07-26T20:32:25.879Z,27.90
2018-07-26T20:34:54.055Z,27.80
2018-07-26T20:37:21.565Z,27.80
2018-07-26T20:39:48.958Z,27.80
2018-07-26T20:42:16.297Z,27.80
2018-07-26T20:44:45.290Z,27.60
2018-07-26T20:47:12.782Z,27.70
2018-07-26T20:52:07.740Z,27.40
2018-07-26T20:54:35.178Z,27.40
2018-07-26T20:57:02.840Z,27.50
2018-07-26T21:01:57.883Z,27.40
2018-07-26T21:04:25.341Z,27.40
2018-07-26T21:06:52.887Z,27.30
2018-07-26T21:09:20.311Z,27.30
2018-07-26T21:11:47.868Z,27.30
2018-07-26T21:14:15.282Z,27.20
2018-07-26T21:19:10.093Z,27.20
2018-07-26T21:21:45.262Z,27.20
2018-07-26T21:24:30.147Z,27.20
2018-07-26T21:27:16.611Z,27.10
2018-07-26T21:30:09.698Z,27.00
2018-07-26T21:32:37.909Z,27.00
2018-07-26T21:35:06.086Z,26.90
2018-07-26T21:37:33.482Z,26.90
2018-07-26T21:40:00.912Z,26.80
2018-07-26T21:42:28.305Z,26.80
2018-07-26T21:44:55.764Z,26.70
2018-07-26T21:47:23.246Z,26.70
2018-07-26T21:49:50.618Z,26.70
2018-07-26T21:52:18.180Z,26.60
2018-07-26T21:54:45.597Z,26.60
2018-07-26T21:57:12.966Z,26.60
2018-07-26T21:59:40.339Z,26.50
2018-07-26T22:02:07.886Z,26.50
2018-07-26T22:04:35.344Z,26.50
2018-07-26T22:07:02.832Z,26.40
2018-07-26T22:09:30.400Z,26.40
2018-07-26T22:14:25.143Z,26.20
2018-07-26T22:16:52.504Z,26.20
2018-07-26T22:19:19.907Z,26.20
2018-07-26T22:21:47.312Z,26.10
2018-07-26T22:24:14.821Z,26.10
2018-07-26T22:26:42.266Z,26.10
2018-07-26T22:29:09.718Z,26.00
2018-07-26T22:34:04.466Z,26.00
2018-07-26T22:36:31.974Z,26.00
2018-07-26T22:38:59.350Z,25.90
2018-07-26T22:41:26.758Z,25.80
2018-07-26T22:43:54.128Z,25.70
2018-07-26T22:46:21.518Z,25.60
2018-07-26T22:48:48.909Z,25.50
2018-07-26T22:51:16.226Z,25.40
2018-07-26T22:53:43.625Z,25.30
2018-07-26T22:56:11.086Z,25.30
2018-07-26T22:58:38.397Z,25.20
2018-07-26T23:01:05.843Z,25.10
2018-07-26T23:03:33.389Z,25.10
2018-07-26T23:06:00.723Z,25.10
2018-07-26T23:08:28.107Z,25.00
2018-07-26T23:10:55.445Z,24.80
2018-07-26T23:13:22.801Z,24.70
2018-07-26T23:15:50.244Z,24.70
2018-07-26T23:18:17.735Z,24.70
2018-07-26T23:20:45.242Z,24.60
2018-07-26T23:23:12.664Z,24.60
2018-07-26T23:25:40.105Z,24.50
2018-07-26T23:28:07.494Z,24.50
2018-07-26T23:30:34.778Z,24.50
2018-07-26T23:33:02.139Z,24.40
2018-07-26T23:35:29.572Z,24.30
2018-07-26T23:37:56.848Z,24.20
2018-07-26T23:40:24.201Z,24.00
2018-07-26T23:42:51.960Z,24.00
2018-07-26T23:45:19.442Z,24.00
2018-07-26T23:47:46.794Z,24.00
2018-07-26T23:50:14.226Z,23.90
2018-07-26T23:52:41.556Z,23.90
2018-07-26T23:55:08.882Z,23.80
2018-07-26T23:57:36.335Z,23.70
